Tucson, Arizona
Current Conditions -  °F | °C
As of 4:58 PM on Saturday 25 Oct 2014 (Local Time) from KDMA Reporting Station
Clear Clear  
Wind Chill: 90°   Ceiling: Unl
Heat Index: 90°   Visibility: 10mi
Dew Point: 49°   Wind: 9mph
Humidity: 25%   Direction: 240°WSW
Pressure: 30"   Gusts: NA
Location:  32.22°N, 110.96°W
Report Text: KDMA 252358Z AUTO 24008KT 10SM CLR 32/10 A3000 RMK AO2 SLP119 60000 T03240097 10342 20305 57011 $
Loading
Personal Weather Stations






























Interactive Weather Map New forecast layout! Learn more

10-Day Weather Forecast

Advertisements
Track Severe Weather on mobile